createdAt,value
2022-11-10T00:02:12.224Z,11.77
2022-11-10T00:05:01.838Z,13.43
2022-11-10T00:07:54.031Z,12.45
2022-11-10T00:10:56.687Z,11.90
2022-11-10T00:13:58.273Z,11.20
2022-11-10T00:17:01.247Z,12.23
2022-11-10T00:19:51.299Z,13.05
2022-11-10T00:22:42.091Z,13.40
2022-11-10T00:25:35.459Z,10.40
2022-11-10T00:28:24.915Z,13.80
2022-11-10T00:31:14.715Z,14.00
2022-11-10T00:34:03.867Z,13.13
2022-11-10T00:36:53.690Z,10.18
2022-11-10T00:39:43.045Z,9.93
2022-11-10T00:42:35.738Z,12.50
2022-11-10T00:45:25.599Z,13.02
2022-11-10T00:48:15.075Z,9.93
2022-11-10T00:51:04.957Z,15.52
2022-11-10T00:53:54.726Z,13.45
2022-11-10T00:56:43.984Z,12.48
2022-11-10T00:59:36.392Z,11.88
2022-11-10T01:02:25.486Z,15.07
2022-11-10T01:05:14.667Z,11.75
2022-11-10T01:08:04.395Z,15.13
2022-11-10T01:10:53.901Z,15.57
2022-11-10T01:13:43.602Z,11.43
2022-11-10T01:16:35.943Z,10.75
2022-11-10T01:19:25.289Z,10.85
2022-11-10T01:22:15.105Z,10.57
2022-11-10T01:25:04.704Z,10.77
2022-11-10T01:27:54.649Z,7.97
2022-11-10T01:30:44.272Z,8.52
2022-11-10T01:33:36.575Z,10.65
2022-11-10T01:36:26.365Z,8.77
2022-11-10T01:39:15.619Z,12.93
2022-11-10T01:42:05.212Z,8.27
2022-11-10T01:45:39.317Z,11.63
2022-11-10T01:48:38.135Z,8.70
2022-11-10T01:51:30.383Z,10.35
2022-11-10T01:54:25.348Z,6.13
2022-11-10T01:57:17.173Z,7.55
2022-11-10T02:00:08.359Z,7.18
2022-11-10T02:03:04.070Z,9.50
2022-11-10T02:05:56.982Z,9.77
2022-11-10T02:08:47.814Z,11.23
2022-11-10T02:11:38.633Z,11.48
2022-11-10T02:14:28.759Z,11.38
2022-11-10T02:17:18.590Z,11.15
2022-11-10T02:20:12.482Z,10.48
2022-11-10T02:23:15.352Z,12.85
2022-11-10T02:26:06.588Z,11.85
2022-11-10T02:28:56.002Z,10.90
2022-11-10T02:31:45.940Z,11.27
2022-11-10T02:34:35.226Z,10.27
2022-11-10T02:37:24.724Z,10.68
2022-11-10T02:40:17.124Z,5.50
2022-11-10T02:43:07.542Z,8.48
2022-11-10T02:45:57.266Z,11.35
2022-11-10T02:48:46.708Z,7.22
2022-11-10T02:51:35.995Z,10.98
2022-11-10T02:54:25.556Z,10.38
2022-11-10T02:57:17.649Z,11.52
2022-11-10T03:00:07.866Z,12.57
2022-11-10T03:03:01.525Z,10.27
2022-11-10T03:05:50.789Z,12.38
2022-11-10T03:08:40.388Z,10.65
2022-11-10T03:11:32.406Z,11.85
2022-11-10T03:14:24.470Z,8.65
2022-11-10T03:17:14.402Z,10.90
2022-11-10T03:20:05.602Z,12.27
2022-11-10T03:22:55.324Z,10.48
2022-11-10T03:25:46.620Z,6.57
2022-11-10T03:28:35.941Z,10.55
2022-11-10T03:31:28.297Z,6.80
2022-11-10T03:34:17.901Z,9.88
2022-11-10T03:37:07.458Z,10.50
2022-11-10T03:39:56.749Z,13.85
2022-11-10T03:42:47.020Z,11.00
2022-11-10T03:45:36.458Z,9.10
2022-11-10T03:48:29.027Z,6.43
2022-11-10T03:51:18.755Z,9.43
2022-11-10T03:54:09.195Z,10.48
2022-11-10T03:56:58.643Z,8.35
2022-11-10T03:59:48.303Z,9.88
2022-11-10T04:02:37.893Z,9.63
2022-11-10T04:05:42.123Z,6.28
2022-11-10T04:08:43.811Z,5.22
2022-11-10T04:11:46.516Z,7.63
2022-11-10T04:14:48.135Z,9.02
2022-11-10T04:17:37.961Z,8.55
2022-11-10T04:20:30.291Z,9.90
2022-11-10T04:23:35.369Z,6.65
2022-11-10T04:26:33.941Z,5.50
2022-11-10T04:29:24.023Z,8.95
2022-11-10T04:32:13.798Z,9.20
2022-11-10T04:35:03.663Z,9.90
2022-11-10T04:37:55.706Z,10.00
2022-11-10T04:40:45.259Z,11.85
2022-11-10T04:43:35.159Z,13.15
2022-11-10T04:46:27.477Z,9.73
2022-11-10T04:49:17.535Z,8.60
2022-11-10T04:52:06.914Z,8.73
2022-11-10T04:54:58.930Z,11.73
2022-11-10T04:57:48.199Z,10.50
2022-11-10T05:00:38.071Z,9.07
2022-11-10T05:03:27.601Z,12.00
2022-11-10T05:06:18.579Z,11.00
2022-11-10T05:09:08.019Z,8.23
2022-11-10T05:12:00.446Z,9.80
2022-11-10T05:14:50.164Z,10.50
2022-11-10T05:17:39.419Z,12.70
2022-11-10T05:20:29.734Z,11.45
2022-11-10T05:23:31.172Z,11.65
2022-11-10T05:26:22.158Z,12.10
2022-11-10T05:29:14.407Z,14.45
2022-11-10T05:32:04.097Z,9.27
2022-11-10T05:34:53.707Z,10.07
2022-11-10T05:37:44.078Z,10.93
2022-11-10T05:40:33.630Z,15.40
2022-11-10T05:43:23.270Z,7.30
2022-11-10T05:46:15.931Z,7.60
2022-11-10T05:49:05.970Z,12.25
2022-11-10T05:51:55.575Z,10.65
2022-11-10T05:54:45.620Z,11.60
2022-11-10T05:57:35.467Z,12.13
2022-11-10T06:00:27.748Z,9.15
2022-11-10T06:03:22.507Z,9.48
2022-11-10T06:06:12.527Z,8.07
2022-11-10T06:09:02.996Z,5.28
2022-11-10T06:11:52.927Z,6.85
2022-11-10T06:14:42.948Z,6.93
2022-11-10T06:17:32.624Z,6.45
2022-11-10T06:20:24.858Z,8.55
2022-11-10T06:23:15.741Z,9.77
2022-11-10T06:26:05.188Z,5.13
2022-11-10T06:28:54.680Z,10.93
2022-11-10T06:31:44.290Z,6.65
2022-11-10T06:34:34.435Z,6.43
2022-11-10T06:37:27.018Z,6.45
2022-11-10T06:40:17.295Z,14.15
2022-11-10T06:43:07.847Z,13.07
2022-11-10T06:45:57.581Z,10.52
2022-11-10T06:48:47.502Z,8.73
2022-11-10T06:51:38.142Z,9.75
2022-11-10T06:54:43.355Z,9.35
2022-11-10T06:57:34.082Z,6.90
2022-11-10T07:00:24.603Z,8.68
2022-11-10T07:03:20.464Z,9.80
2022-11-10T07:06:11.593Z,7.65
2022-11-10T07:09:01.711Z,9.77
2022-11-10T07:11:54.460Z,10.38
2022-11-10T07:14:44.400Z,51.55
2022-11-10T07:17:40.045Z,16.67
2022-11-10T07:20:30.250Z,10.93
2022-11-10T07:23:20.468Z,14.27
2022-11-10T07:26:09.841Z,8.93
2022-11-10T07:29:02.659Z,7.82
2022-11-10T07:31:52.296Z,9.20
2022-11-10T07:34:41.837Z,12.70
2022-11-10T07:37:31.096Z,9.60
2022-11-10T07:40:20.822Z,7.95
2022-11-10T07:43:10.678Z,9.43
2022-11-10T07:46:03.135Z,10.52
2022-11-10T07:48:52.741Z,10.90
2022-11-10T07:51:42.336Z,7.22
2022-11-10T07:54:31.933Z,9.05
2022-11-10T07:57:21.632Z,8.18
2022-11-10T08:00:13.058Z,6.00
2022-11-10T08:03:10.402Z,7.53
2022-11-10T08:06:00.259Z,6.72
2022-11-10T08:08:50.323Z,5.32
2022-11-10T08:11:41.084Z,8.43
2022-11-10T08:14:30.229Z,10.32
2022-11-10T08:17:20.195Z,10.25
2022-11-10T08:20:14.247Z,8.23
2022-11-10T08:23:05.510Z,12.10
2022-11-10T08:25:54.653Z,11.63
2022-11-10T08:28:44.539Z,9.60
2022-11-10T08:31:35.952Z,10.48
2022-11-10T08:34:25.710Z,5.97
2022-11-10T08:37:18.015Z,8.65
2022-11-10T08:40:09.168Z,7.40
2022-11-10T08:43:07.650Z,9.70
2022-11-10T08:45:59.263Z,8.70
2022-11-10T08:48:48.744Z,10.60
2022-11-10T08:51:39.391Z,12.43
2022-11-10T08:54:31.435Z,12.35
2022-11-10T08:57:20.788Z,10.07
2022-11-10T09:00:12.281Z,8.90
2022-11-10T09:03:08.460Z,10.73
2022-11-10T09:05:58.859Z,12.85
2022-11-10T09:08:48.501Z,9.35
2022-11-10T09:11:40.969Z,13.00
2022-11-10T09:14:30.962Z,14.45
2022-11-10T09:17:21.582Z,12.20
2022-11-10T09:20:13.105Z,11.60
2022-11-10T09:23:09.818Z,12.65
2022-11-10T09:26:00.318Z,7.43
2022-11-10T09:28:53.329Z,11.52
2022-11-10T09:31:43.234Z,8.95
2022-11-10T09:34:32.713Z,12.82
2022-11-10T09:37:22.256Z,12.13
2022-11-10T09:40:21.098Z,10.95
2022-11-10T09:43:20.669Z,8.38
2022-11-10T09:46:17.544Z,10.88
2022-11-10T09:49:16.687Z,9.68
2022-11-10T09:52:06.988Z,8.95
2022-11-10T09:55:01.289Z,5.53
2022-11-10T09:57:52.578Z,13.98
2022-11-10T10:00:43.485Z,13.65
2022-11-10T10:03:36.757Z,9.23
2022-11-10T10:06:33.992Z,9.40
2022-11-10T10:09:43.245Z,9.68
2022-11-10T10:12:58.066Z,9.05
2022-11-10T10:16:01.874Z,13.52
2022-11-10T10:19:00.240Z,9.82
2022-11-10T10:22:04.283Z,20.30
2022-11-10T10:24:56.408Z,12.23
2022-11-10T10:27:50.058Z,10.77
2022-11-10T10:30:39.436Z,13.00
2022-11-10T10:33:31.444Z,11.70
2022-11-10T10:36:27.764Z,10.45
2022-11-10T10:39:20.179Z,11.85
2022-11-10T10:42:19.224Z,10.80
2022-11-10T10:45:23.899Z,9.45
2022-11-10T10:48:30.867Z,9.80
2022-11-10T10:51:35.150Z,8.80
2022-11-10T10:54:29.981Z,8.85
2022-11-10T10:57:30.344Z,12.30
2022-11-10T11:00:24.180Z,12.07
2022-11-10T11:03:22.691Z,10.07
2022-11-10T11:06:25.687Z,8.80
2022-11-10T11:09:23.080Z,10.10
2022-11-10T11:12:15.246Z,9.80
2022-11-10T11:15:22.897Z,8.63
2022-11-10T11:18:18.068Z,6.28
2022-11-10T11:21:14.050Z,5.85
2022-11-10T11:24:13.984Z,7.93
2022-11-10T11:27:13.612Z,8.07
2022-11-10T11:30:10.405Z,7.82
2022-11-10T11:33:16.622Z,9.17
2022-11-10T11:36:17.608Z,7.35
2022-11-10T11:39:18.146Z,7.57
2022-11-10T11:42:20.838Z,7.72
2022-11-10T11:45:20.104Z,8.15
2022-11-10T11:48:33.430Z,5.97
2022-11-10T11:51:30.318Z,8.35
2022-11-10T11:54:31.227Z,9.32
2022-11-10T11:57:40.299Z,7.28
2022-11-10T12:00:32.824Z,4.68
2022-11-10T12:03:40.440Z,6.43
2022-11-10T12:06:43.689Z,7.63
2022-11-10T12:09:41.717Z,8.85
2022-11-10T12:12:53.063Z,8.77
2022-11-10T12:15:51.324Z,8.35
2022-11-10T12:18:49.922Z,10.30
2022-11-10T12:21:48.509Z,9.77
2022-11-10T12:24:54.356Z,6.43
2022-11-10T12:27:50.420Z,9.98
2022-11-10T12:30:41.614Z,6.43
2022-11-10T12:33:39.697Z,10.32
2022-11-10T12:36:32.515Z,7.88
2022-11-10T12:39:26.197Z,11.02
2022-11-10T12:42:21.224Z,9.75
2022-11-10T12:45:23.297Z,4.82
2022-11-10T12:48:15.104Z,7.22
2022-11-10T12:51:11.342Z,7.90
2022-11-10T12:54:01.019Z,8.95
2022-11-10T12:56:55.330Z,7.07
2022-11-10T12:59:51.748Z,6.25
2022-11-10T13:02:49.272Z,6.40
2022-11-10T13:05:42.221Z,6.70
2022-11-10T13:08:37.591Z,10.00
2022-11-10T13:11:33.919Z,8.35
2022-11-10T13:14:37.461Z,11.00
2022-11-10T13:17:56.622Z,5.50
2022-11-10T13:20:54.301Z,8.48
2022-11-10T13:24:13.246Z,7.63
2022-11-10T13:27:05.388Z,9.38
2022-11-10T13:29:59.107Z,6.15
2022-11-10T13:32:48.430Z,10.77
2022-11-10T13:35:59.648Z,7.35
2022-11-10T13:38:49.256Z,8.32
2022-11-10T13:41:49.520Z,8.20
2022-11-10T13:44:42.376Z,8.80
2022-11-10T13:47:49.538Z,8.48
2022-11-10T13:50:57.197Z,5.00
2022-11-10T13:54:02.996Z,8.73
2022-11-10T13:57:25.355Z,6.40
2022-11-10T14:00:29.859Z,5.80
2022-11-10T14:04:04.000Z,6.97
2022-11-10T14:06:55.871Z,3.58
2022-11-10T14:09:51.137Z,7.68
2022-11-10T14:12:49.378Z,7.10
2022-11-10T14:15:43.744Z,5.60
2022-11-10T14:18:42.818Z,6.13
2022-11-10T14:21:40.295Z,9.80
2022-11-10T14:24:33.898Z,5.28
2022-11-10T14:27:30.144Z,10.02
2022-11-10T14:30:29.200Z,6.30
2022-11-10T14:33:18.899Z,10.60
2022-11-10T14:36:10.838Z,8.68
2022-11-10T14:39:01.766Z,5.55
2022-11-10T14:41:52.526Z,10.20
2022-11-10T14:44:45.347Z,8.07
2022-11-10T14:47:36.109Z,12.73
2022-11-10T14:50:27.681Z,9.68
2022-11-10T14:53:22.992Z,8.25
2022-11-10T14:56:19.482Z,8.90
2022-11-10T14:59:14.000Z,5.53
2022-11-10T15:02:06.697Z,12.40
2022-11-10T15:04:57.666Z,8.35
2022-11-10T15:07:48.543Z,9.63
2022-11-10T15:10:49.571Z,7.10
2022-11-10T15:13:40.934Z,6.15
2022-11-10T15:16:32.788Z,8.98
2022-11-10T15:19:31.391Z,5.80
2022-11-10T15:22:23.917Z,10.75
2022-11-10T15:25:18.990Z,6.85
2022-11-10T15:28:19.224Z,7.70
2022-11-10T15:31:11.392Z,6.68
2022-11-10T15:34:02.265Z,13.05
2022-11-10T15:37:12.910Z,5.70
2022-11-10T15:40:32.878Z,4.78
2022-11-10T15:43:31.986Z,8.23
2022-11-10T15:46:23.776Z,7.80
2022-11-10T15:49:16.418Z,6.22
2022-11-10T15:52:14.837Z,9.55
2022-11-10T15:55:04.384Z,7.18
2022-11-10T15:57:54.088Z,6.57
2022-11-10T16:00:43.744Z,6.65
2022-11-10T16:03:34.374Z,4.53
2022-11-10T16:06:23.592Z,3.70
2022-11-10T16:09:16.907Z,6.50
2022-11-10T16:12:06.649Z,9.07
2022-11-10T16:14:57.635Z,5.53
2022-11-10T16:17:47.328Z,5.88
2022-11-10T16:20:36.805Z,6.55
2022-11-10T16:23:27.470Z,8.88
2022-11-10T16:26:22.699Z,6.72
2022-11-10T16:29:16.964Z,9.93
2022-11-10T16:32:07.363Z,5.72
2022-11-10T16:34:57.142Z,8.63
2022-11-10T16:37:46.695Z,12.50
2022-11-10T16:40:36.538Z,11.68
2022-11-10T16:43:30.222Z,9.57
2022-11-10T16:46:24.597Z,9.38
2022-11-10T16:49:26.602Z,6.00
2022-11-10T16:52:19.379Z,5.30
2022-11-10T16:55:09.951Z,7.07
2022-11-10T16:58:00.065Z,10.23
2022-11-10T17:00:52.608Z,8.40
2022-11-10T17:03:46.307Z,10.50
2022-11-10T17:06:35.524Z,13.23
2022-11-10T17:09:27.871Z,9.63
2022-11-10T17:12:17.848Z,9.77
2022-11-10T17:15:08.318Z,12.55
2022-11-10T17:18:10.210Z,12.30
2022-11-10T17:20:59.641Z,11.20
2022-11-10T17:23:49.073Z,8.00
2022-11-10T17:26:38.511Z,11.98
2022-11-10T17:29:30.267Z,8.38
2022-11-10T17:32:27.913Z,9.07
2022-11-10T17:35:24.513Z,8.85
2022-11-10T17:38:24.172Z,6.03
2022-11-10T17:41:19.018Z,6.70
2022-11-10T17:44:08.344Z,7.38
2022-11-10T17:46:57.921Z,8.20
2022-11-10T17:49:47.494Z,19.23
2022-11-10T17:52:40.522Z,28.67
2022-11-10T17:55:34.254Z,35.03
2022-11-10T17:58:24.602Z,17.17
2022-11-10T18:01:22.497Z,10.38
2022-11-10T18:07:05.949Z,7.22
2022-11-10T18:09:58.273Z,9.63
2022-11-10T18:12:47.940Z,9.27
2022-11-10T18:15:37.773Z,11.77
2022-11-10T18:18:28.419Z,8.75
2022-11-10T18:21:19.081Z,8.18
2022-11-10T18:24:09.391Z,9.18
2022-11-10T18:27:02.762Z,10.38
2022-11-10T18:29:52.793Z,9.80
2022-11-10T18:32:42.551Z,11.40
2022-11-10T18:35:32.708Z,12.18
2022-11-10T18:38:22.483Z,12.98
2022-11-10T18:41:25.462Z,12.48
2022-11-10T18:44:19.131Z,11.80
2022-11-10T18:47:10.131Z,11.48
2022-11-10T18:50:00.129Z,17.58
2022-11-10T18:52:50.480Z,21.10
2022-11-10T18:55:45.278Z,21.27
2022-11-10T18:58:35.783Z,26.42
2022-11-10T19:01:29.853Z,19.85
2022-11-10T19:04:19.688Z,26.23
2022-11-10T19:07:10.394Z,26.30
2022-11-10T19:10:00.292Z,28.75
2022-11-10T19:12:50.113Z,23.77
2022-11-10T19:15:44.125Z,50.67
2022-11-10T19:18:38.781Z,50.72
2022-11-10T19:21:30.065Z,55.75
2022-11-10T19:24:27.732Z,35.63
2022-11-10T19:30:09.917Z,44.42
2022-11-10T19:32:59.469Z,35.58
2022-11-10T19:35:53.383Z,29.75
2022-11-10T19:38:44.087Z,15.77
2022-11-10T19:41:35.107Z,17.30
2022-11-10T19:44:25.267Z,21.92
2022-11-10T19:47:14.618Z,33.40
2022-11-10T19:50:04.038Z,22.02
2022-11-10T19:52:56.726Z,53.53
2022-11-10T19:55:46.485Z,12.30
2022-11-10T19:58:39.231Z,18.38
2022-11-10T20:01:28.950Z,14.90
2022-11-10T20:04:18.382Z,16.77
2022-11-10T20:07:22.312Z,16.67
2022-11-10T20:10:15.659Z,23.73
2022-11-10T20:13:05.823Z,14.32
2022-11-10T20:15:56.074Z,10.25
2022-11-10T20:18:46.613Z,8.75
2022-11-10T20:21:36.644Z,9.80
2022-11-10T20:24:26.609Z,16.38
2022-11-10T20:27:18.856Z,12.30
2022-11-10T20:30:09.602Z,9.30
2022-11-10T20:32:59.388Z,15.70
2022-11-10T20:35:49.309Z,12.80
2022-11-10T20:38:39.139Z,23.65
2022-11-10T20:41:33.652Z,8.52
2022-11-10T20:44:26.562Z,12.05
2022-11-10T20:47:15.937Z,13.43
2022-11-10T20:50:10.133Z,10.95
2022-11-10T20:53:06.019Z,11.95
2022-11-10T20:56:02.288Z,9.57
2022-11-10T20:58:53.771Z,13.02
2022-11-10T21:01:46.295Z,15.00
2022-11-10T21:04:40.391Z,16.42
2022-11-10T21:07:32.418Z,10.75
2022-11-10T21:10:21.878Z,12.13
2022-11-10T21:13:11.674Z,12.70
2022-11-10T21:16:03.270Z,15.32
2022-11-10T21:18:58.869Z,13.98
2022-11-10T21:21:49.658Z,11.75
2022-11-10T21:24:39.965Z,11.10
2022-11-10T21:27:30.278Z,16.92
2022-11-10T21:30:23.228Z,19.20
2022-11-10T21:33:12.876Z,37.17
2022-11-10T21:36:08.975Z,16.08
2022-11-10T21:38:58.830Z,16.55
2022-11-10T21:41:48.965Z,12.05
2022-11-10T21:44:38.738Z,15.98
2022-11-10T21:47:28.287Z,12.68
2022-11-10T21:50:18.224Z,13.30
2022-11-10T21:53:12.871Z,11.90
2022-11-10T21:56:02.926Z,24.10
2022-11-10T21:58:52.207Z,13.93
2022-11-10T22:01:41.386Z,14.85
2022-11-10T22:04:31.700Z,13.02
2022-11-10T22:07:27.550Z,9.93
2022-11-10T22:10:32.320Z,9.52
2022-11-10T22:13:34.980Z,11.95
2022-11-10T22:16:39.431Z,10.02
2022-11-10T22:19:29.566Z,11.63
2022-11-10T22:22:18.777Z,10.88
2022-11-10T22:25:09.515Z,11.88
2022-11-10T22:28:02.209Z,12.95
2022-11-10T22:30:51.684Z,12.98
2022-11-10T22:33:43.259Z,12.73
2022-11-10T22:36:32.660Z,9.55
2022-11-10T22:39:22.155Z,13.30
2022-11-10T22:42:27.491Z,10.93
2022-11-10T22:45:20.333Z,10.00
2022-11-10T22:48:22.491Z,12.23
2022-11-10T22:51:11.829Z,9.00
2022-11-10T22:54:03.044Z,11.30
2022-11-10T22:56:53.462Z,15.07
2022-11-10T22:59:43.220Z,13.55
2022-11-10T23:02:36.288Z,8.15
2022-11-10T23:05:25.617Z,13.55
2022-11-10T23:08:15.183Z,13.45
2022-11-10T23:11:06.479Z,18.52
2022-11-10T23:13:56.632Z,12.40
2022-11-10T23:16:46.212Z,12.60
2022-11-10T23:19:38.830Z,10.77
2022-11-10T23:22:28.301Z,9.40
2022-11-10T23:25:18.297Z,13.63
2022-11-10T23:28:08.414Z,10.38
2022-11-10T23:30:58.264Z,13.50
2022-11-10T23:33:50.427Z,12.68
2022-11-10T23:36:43.034Z,13.75
2022-11-10T23:39:32.485Z,12.20
2022-11-10T23:42:22.395Z,9.52
2022-11-10T23:45:14.067Z,13.55
2022-11-10T23:48:06.831Z,14.75
2022-11-10T23:50:57.471Z,13.48
2022-11-10T23:53:50.316Z,15.43
2022-11-10T23:56:40.399Z,14.38
2022-11-10T23:59:29.823Z,20.40
